Impacts TAF Board INFO
FOR SITUATIONAL AWARENESS. NOT TO BE USED FOR FLIGHT PLANNING PURPOSES.
IDs:

KMSP - Minneapolis-St Paul, MN, US

Issued at 0520 UTC 18 Feb 2018
Updated at 0657 UTC 18 Feb 2018
Potential Impact None Slight Moderate High
Time0653Z 18/07Z 18/08Z 18/09Z 18/10Z 18/11Z 18/12Z 18/13Z 18/14Z 18/15Z 18/16Z 18/17Z 18/18Z 18/19Z>>
Type OBS PRVL PRVL PRVL PRVL PRVL PRVL PRVL PRVL PRVL PRVL PRVL PRVL PRVL
VIS 10 >6 >6 >6 >6 >6 >6 >6 >6 >6 >6 >6 >6 >6
CIG -- -- -- 100 100 100 100 100 80 80 80 80 80 80
Cover SCT SCT SCT BKN BKN BKN BKN BKN OVC OVC OVC OVC OVC OVC
FltCat VFR VFR VFR VFR VFR VFR VFR VFR VFR VFR VFR VFR VFR VFR
WX -- -- -- -- -- -- -- -- -- -- -- -- -- --
WDir VRB VRB VRB 110 110 110 110 110 150 150 150 150 180 180
WSpd 0 3 3 5 5 5 5 5 15 15 15 15 14 14
WGst -- -- -- -- -- -- -- -- -- -- -- -- 23 23

Raw TAF
KMSP 180520Z 1806/1912 VRB03KT P6SM SCT250
  FM180900 11005KT P6SM BKN100
  FM181400 15015KT P6SM SCT025 OVC080 WS020/19055KT
  FM181800 18014G23KT P6SM SCT025 OVC080
  FM182200 20008KT P6SM SCT025 OVC050
  FM190300 33012KT P6SM BKN025 OVC035


Raw METAR
KMSP 180653Z 00000KT 10SM SCT250 M07/M13 A3005 RMK AO2 SLP188 T10721128
KMSP 180553Z 00000KT 10SM FEW250 M06/M14 A3008 RMK AO2 SLP198 4/003 T10561139 11006 21061 400331067 51009
KMSP 180453Z 26004KT 10SM FEW250 M05/M14 A3008 RMK AO2 SLP197 T10501139
KMSP 180353Z 30005KT 10SM FEW250 M06/M14 A3006 RMK AO2 SLP193 T10561139

METAR Board
Radar Display
Forecast Discussion

FOR SITUATIONAL AWARENESS. NOT TO BE USED FOR FLIGHT PLANNING PURPOSES.